sensor_id;sensor_type;location;lat;lon;timestamp;pressure;altitude;pressure_sealevel;temperature;humidity
72548;BME280;60570;50.848;6.776;2023-11-19T00:00:43;100024.06;;;11.34;71.51
72548;BME280;60570;50.848;6.776;2023-11-19T00:01:45;100018.50;;;11.34;71.67
72548;BME280;60570;50.848;6.776;2023-11-19T00:02:47;100008.19;;;11.34;71.44
72548;BME280;60570;50.848;6.776;2023-11-19T00:03:48;100011.75;;;11.35;71.41
72548;BME280;60570;50.848;6.776;2023-11-19T00:04:50;100003.09;;;11.36;71.49
72548;BME280;60570;50.848;6.776;2023-11-19T00:05:52;100005.88;;;11.36;71.39
72548;BME280;60570;50.848;6.776;2023-11-19T00:06:53;100008.97;;;11.35;71.33
72548;BME280;60570;50.848;6.776;2023-11-19T00:07:54;100004.25;;;11.35;71.31
72548;BME280;60570;50.848;6.776;2023-11-19T00:08:56;99995.91;;;11.35;71.46
72548;BME280;60570;50.848;6.776;2023-11-19T00:09:57;99994.63;;;11.33;71.55
72548;BME280;60570;50.848;6.776;2023-11-19T00:10:57;99995.44;;;11.33;71.52
72548;BME280;60570;50.848;6.776;2023-11-19T00:12:00;99995.91;;;11.35;71.41
72548;BME280;60570;50.848;6.776;2023-11-19T00:13:00;99998.69;;;11.35;71.45
72548;BME280;60570;50.848;6.776;2023-11-19T00:14:03;99998.69;;;11.35;71.71
72548;BME280;60570;50.848;6.776;2023-11-19T00:15:05;99998.69;;;11.35;71.50
72548;BME280;60570;50.848;6.776;2023-11-19T00:16:08;99999.03;;;11.34;71.62
72548;BME280;60570;50.848;6.776;2023-11-19T00:17:10;99995.09;;;11.35;71.46
72548;BME280;60570;50.848;6.776;2023-11-19T00:18:12;99989.50;;;11.35;71.36
72548;BME280;60570;50.848;6.776;2023-11-19T00:19:12;99988.00;;;11.37;71.53
72548;BME280;60570;50.848;6.776;2023-11-19T00:20:13;99986.75;;;11.35;71.45
72548;BME280;60570;50.848;6.776;2023-11-19T00:21:16;99976.44;;;11.35;71.73
72548;BME280;60570;50.848;6.776;2023-11-19T00:22:17;99975.28;;;11.36;71.66
72548;BME280;60570;50.848;6.776;2023-11-19T00:23:19;99968.53;;;11.37;71.51
72548;BME280;60570;50.848;6.776;2023-11-19T00:24:20;99976.06;;;11.37;71.42
72548;BME280;60570;50.848;6.776;2023-11-19T00:25:21;99969.72;;;11.36;71.61
72548;BME280;60570;50.848;6.776;2023-11-19T00:26:22;99978.84;;;11.37;71.59
72548;BME280;60570;50.848;6.776;2023-11-19T00:27:24;99975.75;;;11.38;71.53
72548;BME280;60570;50.848;6.776;2023-11-19T00:28:24;99981.31;;;11.38;71.54
72548;BME280;60570;50.848;6.776;2023-11-19T00:29:26;99979.31;;;11.39;71.54
72548;BME280;60570;50.848;6.776;2023-11-19T00:30:26;99978.06;;;11.36;71.55
72548;BME280;60570;50.848;6.776;2023-11-19T00:31:27;99967.72;;;11.37;71.69
72548;BME280;60570;50.848;6.776;2023-11-19T00:32:29;99978.53;;;11.38;71.62
72548;BME280;60570;50.848;6.776;2023-11-19T00:33:30;99978.84;;;11.37;71.60
72548;BME280;60570;50.848;6.776;2023-11-19T00:34:32;99986.88;;;11.38;71.53
72548;BME280;60570;50.848;6.776;2023-11-19T00:35:33;99979.31;;;11.39;71.63
72548;BME280;60570;50.848;6.776;2023-11-19T00:36:36;99986.50;;;11.40;71.54
72548;BME280;60570;50.848;6.776;2023-11-19T00:37:36;99980.94;;;11.40;71.40
72548;BME280;60570;50.848;6.776;2023-11-19T00:38:37;99983.72;;;11.40;71.42
72548;BME280;60570;50.848;6.776;2023-11-19T00:39:39;99982.53;;;11.41;71.46
72548;BME280;60570;50.848;6.776;2023-11-19T00:40:39;99984.53;;;11.40;71.50
72548;BME280;60570;50.848;6.776;2023-11-19T00:41:41;99978.16;;;11.40;71.75
72548;BME280;60570;50.848;6.776;2023-11-19T00:42:42;99970.63;;;11.40;71.54
72548;BME280;60570;50.848;6.776;2023-11-19T00:43:43;99971.41;;;11.41;71.70
72548;BME280;60570;50.848;6.776;2023-11-19T00:44:45;99956.72;;;11.40;71.65
72548;BME280;60570;50.848;6.776;2023-11-19T00:45:46;99961.94;;;11.42;71.65
72548;BME280;60570;50.848;6.776;2023-11-19T00:46:50;99958.34;;;11.41;71.87
72548;BME280;60570;50.848;6.776;2023-11-19T00:47:51;99967.94;;;11.44;71.88
72548;BME280;60570;50.848;6.776;2023-11-19T00:48:53;99963.53;;;11.43;72.06
72548;BME280;60570;50.848;6.776;2023-11-19T00:49:53;99963.53;;;11.43;71.95
72548;BME280;60570;50.848;6.776;2023-11-19T00:50:55;99959.59;;;11.44;72.00
72548;BME280;60570;50.848;6.776;2023-11-19T00:51:57;99962.38;;;11.44;72.06
72548;BME280;60570;50.848;6.776;2023-11-19T00:52:59;99964.34;;;11.43;72.02
72548;BME280;60570;50.848;6.776;2023-11-19T00:54:00;99965.16;;;11.44;72.11
72548;BME280;60570;50.848;6.776;2023-11-19T00:55:01;99963.16;;;11.44;72.27
72548;BME280;60570;50.848;6.776;2023-11-19T00:56:03;99962.38;;;11.44;72.32
72548;BME280;60570;50.848;6.776;2023-11-19T00:57:04;99963.16;;;11.44;72.21
72548;BME280;60570;50.848;6.776;2023-11-19T00:58:06;99956.81;;;11.44;72.29
72548;BME280;60570;50.848;6.776;2023-11-19T00:59:08;99965.63;;;11.46;72.39
72548;BME280;60570;50.848;6.776;2023-11-19T01:00:09;99968.84;;;11.48;72.45
72548;BME280;60570;50.848;6.776;2023-11-19T01:01:18;99963.28;;;11.48;72.31
72548;BME280;60570;50.848;6.776;2023-11-19T01:02:19;99973.59;;;11.47;72.46
72548;BME280;60570;50.848;6.776;2023-11-19T01:03:20;99970.47;;;11.49;72.55
72548;BME280;60570;50.848;6.776;2023-11-19T01:04:21;99971.63;;;11.48;72.41
72548;BME280;60570;50.848;6.776;2023-11-19T01:05:24;99970.91;;;11.51;72.07
72548;BME280;60570;50.848;6.776;2023-11-19T01:06:28;99975.34;;;11.52;72.12
72548;BME280;60570;50.848;6.776;2023-11-19T01:07:31;99965.72;;;11.49;72.34
72548;BME280;60570;50.848;6.776;2023-11-19T01:08:32;99957.00;;;11.51;72.23
72548;BME280;60570;50.848;6.776;2023-11-19T01:09:36;99957.00;;;11.51;72.24
72548;BME280;60570;50.848;6.776;2023-11-19T01:10:36;99955.88;;;11.52;72.23
72548;BME280;60570;50.848;6.776;2023-11-19T01:11:38;99964.22;;;11.52;72.26
72548;BME280;60570;50.848;6.776;2023-11-19T01:12:39;99965.00;;;11.52;72.48
72548;BME280;60570;50.848;6.776;2023-11-19T01:13:41;99959.09;;;11.54;72.33
72548;BME280;60570;50.848;6.776;2023-11-19T01:14:41;99953.09;;;11.52;72.56
72548;BME280;60570;50.848;6.776;2023-11-19T01:15:42;99955.88;;;11.52;72.28
72548;BME280;60570;50.848;6.776;2023-11-19T01:16:44;99957.47;;;11.53;72.32
72548;BME280;60570;50.848;6.776;2023-11-19T01:17:44;99962.22;;;11.52;72.19
72548;BME280;60570;50.848;6.776;2023-11-19T01:18:46;99967.44;;;11.54;72.08
72548;BME280;60570;50.848;6.776;2023-11-19T01:19:47;99981.00;;;11.55;72.23
72548;BME280;60570;50.848;6.776;2023-11-19T01:20:50;99969.88;;;11.55;72.07
72548;BME280;60570;50.848;6.776;2023-11-19T01:21:51;99961.97;;;11.57;72.18
72548;BME280;60570;50.848;6.776;2023-11-19T01:22:54;99970.31;;;11.57;72.08
72548;BME280;60570;50.848;6.776;2023-11-19T01:23:54;99973.56;;;11.59;72.08
72548;BME280;60570;50.848;6.776;2023-11-19T01:24:55;99970.78;;;11.59;72.06
72548;BME280;60570;50.848;6.776;2023-11-19T01:25:58;99972.75;;;11.59;72.25
72548;BME280;60570;50.848;6.776;2023-11-19T01:26:59;99972.28;;;11.57;72.44
72548;BME280;60570;50.848;6.776;2023-11-19T01:28:00;99971.91;;;11.58;72.42
72548;BME280;60570;50.848;6.776;2023-11-19T01:29:03;99974.69;;;11.58;72.36
72548;BME280;60570;50.848;6.776;2023-11-19T01:30:05;99969.59;;;11.60;72.34
72548;BME280;60570;50.848;6.776;2023-11-19T01:31:10;99974.00;;;11.61;72.03
72548;BME280;60570;50.848;6.776;2023-11-19T01:32:10;99971.22;;;11.61;72.15
72548;BME280;60570;50.848;6.776;2023-11-19T01:33:12;99968.44;;;11.61;72.26
72548;BME280;60570;50.848;6.776;2023-11-19T01:34:13;99971.69;;;11.63;72.39
72548;BME280;60570;50.848;6.776;2023-11-19T01:35:14;99980.34;;;11.62;72.26
72548;BME280;60570;50.848;6.776;2023-11-19T01:36:16;99984.91;;;11.66;72.33
72548;BME280;60570;50.848;6.776;2023-11-19T01:37:16;99975.41;;;11.67;72.29
72548;BME280;60570;50.848;6.776;2023-11-19T01:38:19;99979.66;;;11.65;72.41
72548;BME280;60570;50.848;6.776;2023-11-19T01:39:20;99971.00;;;11.66;72.40
72548;BME280;60570;50.848;6.776;2023-11-19T01:40:22;99980.97;;;11.67;72.52
72548;BME280;60570;50.848;6.776;2023-11-19T01:41:22;99985.72;;;11.67;72.44
72548;BME280;60570;50.848;6.776;2023-11-19T01:42:25;99984.53;;;11.68;72.54
72548;BME280;60570;50.848;6.776;2023-11-19T01:43:33;99978.63;;;11.69;72.39
72548;BME280;60570;50.848;6.776;2023-11-19T01:44:35;99977.47;;;11.70;72.69
72548;BME280;60570;50.848;6.776;2023-11-19T01:45:36;99973.06;;;11.69;72.57
72548;BME280;60570;50.848;6.776;2023-11-19T01:46:37;99978.28;;;11.71;72.74
72548;BME280;60570;50.848;6.776;2023-11-19T01:47:40;99969.13;;;11.70;72.66
72548;BME280;60570;50.848;6.776;2023-11-19T01:48:45;99977.91;;;11.73;72.56
72548;BME280;60570;50.848;6.776;2023-11-19T01:49:46;99971.53;;;11.72;72.85
72548;BME280;60570;50.848;6.776;2023-11-19T01:50:47;99964.38;;;11.71;72.87
72548;BME280;60570;50.848;6.776;2023-11-19T01:51:48;99968.75;;;11.72;72.87
72548;BME280;60570;50.848;6.776;2023-11-19T01:52:51;99964.81;;;11.73;73.01
72548;BME280;60570;50.848;6.776;2023-11-19T01:53:54;99964.00;;;11.73;73.00
72548;BME280;60570;50.848;6.776;2023-11-19T01:54:57;99957.72;;;11.76;72.88
72548;BME280;60570;50.848;6.776;2023-11-19T01:55:58;99960.94;;;11.78;72.68
72548;BME280;60570;50.848;6.776;2023-11-19T01:57:00;99955.75;;;11.76;72.75
72548;BME280;60570;50.848;6.776;2023-11-19T01:58:01;99958.88;;;11.75;73.07
72548;BME280;60570;50.848;6.776;2023-11-19T01:59:03;99960.84;;;11.74;73.19
72548;BME280;60570;50.848;6.776;2023-11-19T02:00:06;99966.41;;;11.74;73.03
72548;BME280;60570;50.848;6.776;2023-11-19T02:01:12;99980.78;;;11.76;73.11
72548;BME280;60570;50.848;6.776;2023-11-19T02:02:13;99967.69;;;11.77;72.99
72548;BME280;60570;50.848;6.776;2023-11-19T02:03:16;99976.13;;;11.80;73.07
72548;BME280;60570;50.848;6.776;2023-11-19T02:04:16;99968.97;;;11.79;73.18
72548;BME280;60570;50.848;6.776;2023-11-19T02:05:18;99957.00;;;11.79;73.06
72548;BME280;60570;50.848;6.776;2023-11-19T02:06:19;99961.75;;;11.78;73.13
72548;BME280;60570;50.848;6.776;2023-11-19T02:07:20;99962.22;;;11.80;73.00
72548;BME280;60570;50.848;6.776;2023-11-19T02:08:22;99962.22;;;11.80;73.02
72548;BME280;60570;50.848;6.776;2023-11-19T02:09:25;99965.44;;;11.82;73.03
72548;BME280;60570;50.848;6.776;2023-11-19T02:10:25;99954.31;;;11.82;73.13
72548;BME280;60570;50.848;6.776;2023-11-19T02:11:27;99953.50;;;11.82;73.18
72548;BME280;60570;50.848;6.776;2023-11-19T02:12:29;99948.75;;;11.82;73.23
72548;BME280;60570;50.848;6.776;2023-11-19T02:13:34;99948.75;;;11.82;73.08
72548;BME280;60570;50.848;6.776;2023-11-19T02:14:36;99939.25;;;11.83;73.15
72548;BME280;60570;50.848;6.776;2023-11-19T02:15:38;99937.72;;;11.86;73.19
72548;BME280;60570;50.848;6.776;2023-11-19T02:16:38;99926.56;;;11.86;72.98
72548;BME280;60570;50.848;6.776;2023-11-19T02:17:40;99930.19;;;11.86;72.93
72548;BME280;60570;50.848;6.776;2023-11-19T02:18:41;99928.13;;;11.83;72.96
72548;BME280;60570;50.848;6.776;2023-11-19T02:19:42;99934.13;;;11.85;72.98
72548;BME280;60570;50.848;6.776;2023-11-19T02:20:43;99933.78;;;11.87;72.94
72548;BME280;60570;50.848;6.776;2023-11-19T02:21:44;99925.78;;;11.85;73.01
72548;BME280;60570;50.848;6.776;2023-11-19T02:22:46;99919.84;;;11.87;73.04
72548;BME280;60570;50.848;6.776;2023-11-19T02:23:47;99908.00;;;11.90;73.01
72548;BME280;60570;50.848;6.776;2023-11-19T02:24:51;99914.38;;;11.90;73.02
72548;BME280;60570;50.848;6.776;2023-11-19T02:26:02;99915.19;;;11.91;72.68
72548;BME280;60570;50.848;6.776;2023-11-19T02:27:08;99911.59;;;11.90;72.85
72548;BME280;60570;50.848;6.776;2023-11-19T02:28:12;99909.50;;;11.87;72.95
72548;BME280;60570;50.848;6.776;2023-11-19T02:29:14;99916.72;;;11.88;72.96
72548;BME280;60570;50.848;6.776;2023-11-19T02:30:15;99921.09;;;11.89;72.95
72548;BME280;60570;50.848;6.776;2023-11-19T02:31:17;99912.75;;;11.89;72.99
72548;BME280;60570;50.848;6.776;2023-11-19T02:32:19;99914.75;;;11.89;73.21
72548;BME280;60570;50.848;6.776;2023-11-19T02:33:21;99919.94;;;11.90;73.09
72548;BME280;60570;50.848;6.776;2023-11-19T02:34:21;99925.97;;;11.92;72.92
72548;BME280;60570;50.848;6.776;2023-11-19T02:35:23;99913.19;;;11.91;72.88
72548;BME280;60570;50.848;6.776;2023-11-19T02:36:24;99919.56;;;11.92;72.96
72548;BME280;60570;50.848;6.776;2023-11-19T02:37:25;99922.00;;;11.93;73.09
72548;BME280;60570;50.848;6.776;2023-11-19T02:38:26;99925.16;;;11.92;73.01
72548;BME280;60570;50.848;6.776;2023-11-19T02:39:28;99927.56;;;11.93;73.09
72548;BME280;60570;50.848;6.776;2023-11-19T02:40:29;99925.59;;;11.94;72.92
72548;BME280;60570;50.848;6.776;2023-11-19T02:41:30;99926.78;;;11.93;72.87
72548;BME280;60570;50.848;6.776;2023-11-19T02:42:31;99924.00;;;11.93;72.89
72548;BME280;60570;50.848;6.776;2023-11-19T02:43:34;99912.88;;;11.93;72.95
72548;BME280;60570;50.848;6.776;2023-11-19T02:44:36;99919.22;;;11.93;73.00
72548;BME280;60570;50.848;6.776;2023-11-19T02:45:36;99919.56;;;11.92;72.99
72548;BME280;60570;50.848;6.776;2023-11-19T02:46:37;99913.19;;;11.91;73.20
72548;BME280;60570;50.848;6.776;2023-11-19T02:47:39;99906.03;;;11.90;72.87
72548;BME280;60570;50.848;6.776;2023-11-19T02:48:39;99910.41;;;11.91;73.06
72548;BME280;60570;50.848;6.776;2023-11-19T02:49:42;99909.25;;;11.92;73.03
72548;BME280;60570;50.848;6.776;2023-11-19T02:50:43;99910.41;;;11.91;73.06
72548;BME280;60570;50.848;6.776;2023-11-19T02:51:46;99902.50;;;11.93;73.05
72548;BME280;60570;50.848;6.776;2023-11-19T02:52:47;99899.28;;;11.91;73.17
72548;BME280;60570;50.848;6.776;2023-11-19T02:53:48;99904.50;;;11.93;73.03
72548;BME280;60570;50.848;6.776;2023-11-19T02:54:49;99901.28;;;11.91;73.12
72548;BME280;60570;50.848;6.776;2023-11-19T02:55:51;99898.13;;;11.92;73.08
72548;BME280;60570;50.848;6.776;2023-11-19T02:56:52;99899.66;;;11.90;73.03
72548;BME280;60570;50.848;6.776;2023-11-19T02:57:59;99890.94;;;11.91;72.97
72548;BME280;60570;50.848;6.776;2023-11-19T02:59:01;99902.50;;;11.93;73.07
72548;BME280;60570;50.848;6.776;2023-11-19T03:00:10;99901.28;;;11.91;73.13
72548;BME280;60570;50.848;6.776;2023-11-19T03:01:12;99902.88;;;11.92;72.92
72548;BME280;60570;50.848;6.776;2023-11-19T03:02:23;99910.41;;;11.91;73.08
72548;BME280;60570;50.848;6.776;2023-11-19T03:03:27;99909.63;;;11.91;73.26
72548;BME280;60570;50.848;6.776;2023-11-19T03:04:38;99915.19;;;11.91;73.10
72548;BME280;60570;50.848;6.776;2023-11-19T03:05:40;99912.75;;;11.89;73.13
72548;BME280;60570;50.848;6.776;2023-11-19T03:06:41;99903.63;;;11.89;73.16
72548;BME280;60570;50.848;6.776;2023-11-19T03:07:43;99909.63;;;11.91;73.12
72548;BME280;60570;50.848;6.776;2023-11-19T03:08:44;99910.78;;;11.90;73.20
72548;BME280;60570;50.848;6.776;2023-11-19T03:09:46;99913.56;;;11.90;73.12
72548;BME280;60570;50.848;6.776;2023-11-19T03:10:46;99909.63;;;11.91;73.17
72548;BME280;60570;50.848;6.776;2023-11-19T03:11:48;99909.63;;;11.91;73.12
72548;BME280;60570;50.848;6.776;2023-11-19T03:12:50;99904.41;;;11.89;73.20
72548;BME280;60570;50.848;6.776;2023-11-19T03:13:52;99902.06;;;11.91;73.01
72548;BME280;60570;50.848;6.776;2023-11-19T03:14:54;99894.91;;;11.90;73.21
72548;BME280;60570;50.848;6.776;2023-11-19T03:15:56;99883.75;;;11.90;73.12
72548;BME280;60570;50.848;6.776;2023-11-19T03:16:56;99896.16;;;11.93;73.19
72548;BME280;60570;50.848;6.776;2023-11-19T03:17:58;99900.19;;;11.95;73.27
72548;BME280;60570;50.848;6.776;2023-11-19T03:18:59;99896.59;;;11.95;73.01
72548;BME280;60570;50.848;6.776;2023-11-19T03:20:00;99899.84;;;11.97;73.08
72548;BME280;60570;50.848;6.776;2023-11-19T03:21:01;99900.19;;;11.95;73.07
72548;BME280;60570;50.848;6.776;2023-11-19T03:22:03;99905.41;;;11.97;72.92
72548;BME280;60570;50.848;6.776;2023-11-19T03:23:04;99900.63;;;11.97;72.96
72548;BME280;60570;50.848;6.776;2023-11-19T03:24:06;99892.66;;;11.96;72.93
72548;BME280;60570;50.848;6.776;2023-11-19T03:25:08;99893.47;;;11.96;73.02
72548;BME280;60570;50.848;6.776;2023-11-19T03:26:10;99881.88;;;11.94;73.17
72548;BME280;60570;50.848;6.776;2023-11-19T03:27:12;99882.31;;;11.96;72.92
72548;BME280;60570;50.848;6.776;2023-11-19T03:28:12;99885.13;;;11.96;72.92
72548;BME280;60570;50.848;6.776;2023-11-19T03:29:15;99879.53;;;11.96;72.78
72548;BME280;60570;50.848;6.776;2023-11-19T03:30:17;99889.88;;;11.96;73.23
72548;BME280;60570;50.848;6.776;2023-11-19T03:31:19;99887.53;;;11.98;73.08
72548;BME280;60570;50.848;6.776;2023-11-19T03:32:20;99882.78;;;11.98;73.02
72548;BME280;60570;50.848;6.776;2023-11-19T03:33:21;99885.19;;;12.00;73.14
72548;BME280;60570;50.848;6.776;2023-11-19T03:34:22;99879.25;;;12.01;73.02
72548;BME280;60570;50.848;6.776;2023-11-19T03:35:23;99883.22;;;12.00;73.16
72548;BME280;60570;50.848;6.776;2023-11-19T03:36:25;99880.34;;;11.97;73.22
72548;BME280;60570;50.848;6.776;2023-11-19T03:37:26;99885.13;;;11.96;73.21
72548;BME280;60570;50.848;6.776;2023-11-19T03:38:27;99878.72;;;11.96;73.33
72548;BME280;60570;50.848;6.776;2023-11-19T03:39:28;99883.59;;;11.99;73.29
72548;BME280;60570;50.848;6.776;2023-11-19T03:40:30;99879.25;;;12.01;73.13
72548;BME280;60570;50.848;6.776;2023-11-19T03:41:30;99880.06;;;12.02;72.95
72548;BME280;60570;50.848;6.776;2023-11-19T03:42:32;99882.03;;;12.01;73.29
72548;BME280;60570;50.848;6.776;2023-11-19T03:43:33;99880.06;;;12.02;73.26
72548;BME280;60570;50.848;6.776;2023-11-19T03:44:34;99893.63;;;12.03;73.05
72548;BME280;60570;50.848;6.776;2023-11-19T03:45:36;99883.31;;;12.04;73.08
72548;BME280;60570;50.848;6.776;2023-11-19T03:46:38;99892.81;;;12.03;73.17
72548;BME280;60570;50.848;6.776;2023-11-19T03:47:39;99887.25;;;12.03;73.28
72548;BME280;60570;50.848;6.776;2023-11-19T03:48:41;99891.66;;;12.04;73.14
72548;BME280;60570;50.848;6.776;2023-11-19T03:49:42;99891.66;;;12.04;73.23
72548;BME280;60570;50.848;6.776;2023-11-19T03:50:44;99888.88;;;12.04;73.36
72548;BME280;60570;50.848;6.776;2023-11-19T03:51:45;99889.69;;;12.04;73.25
72548;BME280;60570;50.848;6.776;2023-11-19T03:52:45;99894.88;;;12.06;73.21
72548;BME280;60570;50.848;6.776;2023-11-19T03:53:47;99899.63;;;12.05;73.13
72548;BME280;60570;50.848;6.776;2023-11-19T03:54:48;99901.16;;;12.03;73.26
72548;BME280;60570;50.848;6.776;2023-11-19T03:55:48;99896.41;;;12.03;73.19
72548;BME280;60570;50.848;6.776;2023-11-19T03:56:50;99887.25;;;12.03;73.15
72548;BME280;60570;50.848;6.776;2023-11-19T03:57:51;99886.53;;;12.06;73.18
72548;BME280;60570;50.848;6.776;2023-11-19T03:58:53;99898.81;;;12.05;73.16
72548;BME280;60570;50.848;6.776;2023-11-19T03:59:53;99892.09;;;12.06;73.17
72548;BME280;60570;50.848;6.776;2023-11-19T04:00:57;99889.31;;;12.06;73.39
72548;BME280;60570;50.848;6.776;2023-11-19T04:01:57;99892.56;;;12.08;73.34
72548;BME280;60570;50.848;6.776;2023-11-19T04:03:00;99892.09;;;12.06;73.53
72548;BME280;60570;50.848;6.776;2023-11-19T04:04:01;99888.94;;;12.07;73.61
72548;BME280;60570;50.848;6.776;2023-11-19T04:05:04;99887.00;;;12.08;73.45
72548;BME280;60570;50.848;6.776;2023-11-19T04:06:06;99885.81;;;12.09;73.53
72548;BME280;60570;50.848;6.776;2023-11-19T04:07:09;99892.63;;;12.11;73.45
72548;BME280;60570;50.848;6.776;2023-11-19T04:08:10;99883.84;;;12.09;73.49
72548;BME280;60570;50.848;6.776;2023-11-19T04:09:12;99887.81;;;12.08;73.50
72548;BME280;60570;50.848;6.776;2023-11-19T04:10:13;99916.09;;;12.10;73.61
72548;BME280;60570;50.848;6.776;2023-11-19T04:11:16;99892.19;;;12.09;73.54
72548;BME280;60570;50.848;6.776;2023-11-19T04:12:17;99894.53;;;12.07;73.52
72548;BME280;60570;50.848;6.776;2023-11-19T04:13:19;99899.28;;;12.07;73.78
72548;BME280;60570;50.848;6.776;2023-11-19T04:14:19;99893.00;;;12.10;73.87
72548;BME280;60570;50.848;6.776;2023-11-19T04:15:20;99895.34;;;12.08;73.71
72548;BME280;60570;50.848;6.776;2023-11-19T04:16:27;99889.41;;;12.09;74.00
72548;BME280;60570;50.848;6.776;2023-11-19T04:17:28;99900.63;;;12.13;73.69
72548;BME280;60570;50.848;6.776;2023-11-19T04:18:30;99891.94;;;12.14;73.69
72548;BME280;60570;50.848;6.776;2023-11-19T04:19:32;99893.09;;;12.13;73.70
72548;BME280;60570;50.848;6.776;2023-11-19T04:20:34;99896.22;;;12.12;73.76
72548;BME280;60570;50.848;6.776;2023-11-19T04:21:34;99885.53;;;12.14;73.66
72548;BME280;60570;50.848;6.776;2023-11-19T04:22:36;99885.53;;;12.14;73.52
72548;BME280;60570;50.848;6.776;2023-11-19T04:23:37;99885.09;;;12.12;74.03
72548;BME280;60570;50.848;6.776;2023-11-19T04:24:37;99882.75;;;12.14;73.84
72548;BME280;60570;50.848;6.776;2023-11-19T04:25:39;99880.34;;;12.12;73.70
72548;BME280;60570;50.848;6.776;2023-11-19T04:26:40;99893.00;;;12.10;73.92
72548;BME280;60570;50.848;6.776;2023-11-19T04:27:43;99884.66;;;12.10;74.01
72548;BME280;60570;50.848;6.776;2023-11-19T04:28:43;99889.03;;;12.11;73.87
72548;BME280;60570;50.848;6.776;2023-11-19T04:29:45;99890.75;;;12.15;73.66
72548;BME280;60570;50.848;6.776;2023-11-19T04:30:47;99893.97;;;12.17;73.67
72548;BME280;60570;50.848;6.776;2023-11-19T04:31:50;99887.22;;;12.18;73.68
72548;BME280;60570;50.848;6.776;2023-11-19T04:32:50;99893.25;;;12.20;73.42
72548;BME280;60570;50.848;6.776;2023-11-19T04:33:52;99894.44;;;12.19;73.62
72548;BME280;60570;50.848;6.776;2023-11-19T04:34:55;99895.94;;;12.17;73.44
72548;BME280;60570;50.848;6.776;2023-11-19T04:35:56;99896.41;;;12.19;73.59
72548;BME280;60570;50.848;6.776;2023-11-19T04:36:58;99900.00;;;12.19;73.69
72548;BME280;60570;50.848;6.776;2023-11-19T04:38:02;99895.13;;;12.16;73.63
72548;BME280;60570;50.848;6.776;2023-11-19T04:39:03;99889.94;;;12.15;73.91
72548;BME280;60570;50.848;6.776;2023-11-19T04:40:10;99893.97;;;12.17;73.78
72548;BME280;60570;50.848;6.776;2023-11-19T04:41:12;99902.25;;;12.14;73.85
72548;BME280;60570;50.848;6.776;2023-11-19T04:42:14;99905.84;;;12.14;73.76
72548;BME280;60570;50.848;6.776;2023-11-19T04:43:17;99910.69;;;12.17;73.71
72548;BME280;60570;50.848;6.776;2023-11-19T04:44:21;99911.13;;;12.19;73.59
72548;BME280;60570;50.848;6.776;2023-11-19T04:45:22;99909.06;;;12.16;73.73
72548;BME280;60570;50.848;6.776;2023-11-19T04:46:24;99910.69;;;12.17;73.73
72548;BME280;60570;50.848;6.776;2023-11-19T04:47:26;99909.16;;;12.20;73.58
72548;BME280;60570;50.848;6.776;2023-11-19T04:48:26;99918.31;;;12.20;73.39
72548;BME280;60570;50.848;6.776;2023-11-19T04:49:28;99903.59;;;12.20;73.74
72548;BME280;60570;50.848;6.776;2023-11-19T04:50:29;99902.78;;;12.19;73.59
72548;BME280;60570;50.848;6.776;2023-11-19T04:51:30;99909.94;;;12.20;73.49
72548;BME280;60570;50.848;6.776;2023-11-19T04:52:31;99904.38;;;12.20;73.55
72548;BME280;60570;50.848;6.776;2023-11-19T04:53:33;99911.50;;;12.18;73.70
72548;BME280;60570;50.848;6.776;2023-11-19T04:54:34;99912.66;;;12.17;73.75
72548;BME280;60570;50.848;6.776;2023-11-19T04:55:34;99909.88;;;12.17;73.56
72548;BME280;60570;50.848;6.776;2023-11-19T04:56:36;99912.66;;;12.17;73.59
72548;BME280;60570;50.848;6.776;2023-11-19T04:57:37;99911.50;;;12.18;73.53
72548;BME280;60570;50.848;6.776;2023-11-19T04:58:39;99913.09;;;12.19;73.67
72548;BME280;60570;50.848;6.776;2023-11-19T04:59:40;99910.31;;;12.19;73.69
72548;BME280;60570;50.848;6.776;2023-11-19T05:00:42;99916.69;;;12.19;73.36
72548;BME280;60570;50.848;6.776;2023-11-19T05:01:46;99904.75;;;12.19;73.73
72548;BME280;60570;50.848;6.776;2023-11-19T05:02:48;99917.53;;;12.20;73.45
72548;BME280;60570;50.848;6.776;2023-11-19T05:03:50;99915.53;;;12.20;73.50
72548;BME280;60570;50.848;6.776;2023-11-19T05:04:52;99917.53;;;12.20;73.46
72548;BME280;60570;50.848;6.776;2023-11-19T05:05:53;99916.25;;;12.17;73.67
72548;BME280;60570;50.848;6.776;2023-11-19T05:06:54;99913.09;;;12.19;73.52
72548;BME280;60570;50.848;6.776;2023-11-19T05:07:56;99910.69;;;12.17;73.50
72548;BME280;60570;50.848;6.776;2023-11-19T05:08:59;99921.00;;;12.17;73.59
72548;BME280;60570;50.848;6.776;2023-11-19T05:10:05;99921.47;;;12.19;73.69
72548;BME280;60570;50.848;6.776;2023-11-19T05:11:06;99924.59;;;12.17;73.56
72548;BME280;60570;50.848;6.776;2023-11-19T05:12:08;99921.81;;;12.17;73.61
72548;BME280;60570;50.848;6.776;2023-11-19T05:13:12;99925.06;;;12.19;73.51
72548;BME280;60570;50.848;6.776;2023-11-19T05:14:13;99919.50;;;12.19;73.51
72548;BME280;60570;50.848;6.776;2023-11-19T05:15:14;99925.06;;;12.19;73.48
72548;BME280;60570;50.848;6.776;2023-11-19T05:16:15;99918.22;;;12.17;73.64
72548;BME280;60570;50.848;6.776;2023-11-19T05:17:17;99917.78;;;12.15;73.74
72548;BME280;60570;50.848;6.776;2023-11-19T05:18:20;99926.13;;;12.15;73.72
72548;BME280;60570;50.848;6.776;2023-11-19T05:19:21;99929.72;;;12.15;73.63
72548;BME280;60570;50.848;6.776;2023-11-19T05:20:22;99923.34;;;12.15;73.72
72548;BME280;60570;50.848;6.776;2023-11-19T05:21:24;99930.53;;;12.16;73.64
72548;BME280;60570;50.848;6.776;2023-11-19T05:22:24;99918.22;;;12.17;73.58
72548;BME280;60570;50.848;6.776;2023-11-19T05:23:27;99926.22;;;12.18;73.45
72548;BME280;60570;50.848;6.776;2023-11-19T05:24:28;99929.81;;;12.19;73.40
72548;BME280;60570;50.848;6.776;2023-11-19T05:25:29;99929.81;;;12.19;73.50
72548;BME280;60570;50.848;6.776;2023-11-19T05:26:30;99915.88;;;12.19;73.44
72548;BME280;60570;50.848;6.776;2023-11-19T05:27:31;99920.63;;;12.18;73.50